Time;durP1;ratioP1;P1;durP2;ratioP2;P2;SDS_P1;SDS_P2;PMS_P1;PMS_P2;Temp;Humidity;BMP_temperature;BMP_pressure;BME280_temperature;BME280_humidity;BME280_pressure;Samples;Min_cycle;Max_cycle;Signal;HPM_P1;HPM_P2
2022/09/22 00:08:00;;;;;;;2.58;1.67;;;;;;;22.05;48.75;100789.78;20548618;28;20053;-72
2022/09/22 00:18:01;;;;;;;1.98;1.77;;;;;;;22.04;48.88;100801.28;20555168;28;20042;-72
2022/09/22 00:28:01;;;;;;;2.03;1.70;;;;;;;22.04;49.14;100790.72;20589441;28;20038;-71
2022/09/22 00:38:01;;;;;;;2.80;1.92;;;;;;;22.03;49.13;100781.13;20620680;28;20081;-72
2022/09/22 00:48:02;;;;;;;4.90;1.85;;;;;;;22.01;49.08;100783.06;20642263;28;20034;-71
2022/09/22 00:58:08;;;;;;;1.70;1.52;;;;;;;22.00;49.26;100776.94;20646270;28;20116;-71
2022/09/22 01:08:10;;;;;;;1.48;1.38;;;;;;;21.99;49.32;100777.06;20629512;28;20066;-72
2022/09/22 01:18:43;;;;;;;1.50;1.40;;;;;;;21.98;49.07;100767.47;20556030;28;22399;-72
2022/09/22 01:29:02;;;;;;;;;;;;;;;21.97;49.06;100771.91;20642080;28;20496;-72
2022/09/22 01:39:26;;;;;;;1.98;1.60;;;;;;;21.94;49.23;100769.47;20647238;28;19929;-71
2022/09/22 01:49:31;;;;;;;1.92;1.50;;;;;;;21.91;49.14;100770.56;20640802;28;20046;-72
2022/09/22 01:59:37;;;;;;;1.63;1.52;;;;;;;21.89;49.24;100772.44;20639396;28;20045;-72
2022/09/22 02:09:40;;;;;;;2.13;1.48;;;;;;;21.89;49.16;100774.25;20633083;28;20042;-72
2022/09/22 02:19:41;;;;;;;1.63;1.33;;;;;;;21.87;49.31;100768.25;20623892;28;20502;-72
2022/09/22 02:29:45;;;;;;;1.95;1.50;;;;;;;21.85;49.35;100771.00;20584618;28;20041;-74
2022/09/22 02:39:55;;;;;;;1.45;1.35;;;;;;;21.86;49.33;100777.97;20628417;28;20104;-72
2022/09/22 02:49:56;;;;;;;1.88;1.58;;;;;;;21.84;49.01;100765.88;20578001;28;20050;-72
2022/09/22 02:59:57;;;;;;;1.83;1.40;;;;;;;21.82;49.31;100758.03;20555260;28;20053;-72
2022/09/22 03:09:57;;;;;;;1.50;1.40;;;;;;;21.81;49.17;100768.72;20549977;28;20043;-72
2022/09/22 03:19:58;;;;;;;1.42;1.30;;;;;;;21.80;49.29;100753.84;20550360;28;20060;-70
2022/09/22 03:29:58;;;;;;;1.52;1.35;;;;;;;21.78;49.25;100746.06;20569422;28;20049;-71
2022/09/22 03:39:59;;;;;;;1.58;1.20;;;;;;;21.74;49.22;100742.81;20620138;28;20047;-72
2022/09/22 03:49:59;;;;;;;1.80;1.58;;;;;;;21.72;48.97;100744.72;20607418;28;20042;-72
2022/09/22 04:00:01;;;;;;;1.77;1.50;;;;;;;;;;20597125;28;20413;-74
2022/09/22 04:10:02;;;;;;;2.38;1.35;;;;;;;21.72;49.37;100757.06;20572969;28;20046;-74
2022/09/22 04:20:06;;;;;;;1.73;1.30;;;;;;;21.79;49.65;100745.09;20592400;28;20202;-71
2022/09/22 04:30:07;;;;;;;6.32;1.80;;;;;;;21.85;50.40;100751.69;20607378;28;20043;-74
2022/09/22 04:40:10;;;;;;;23.60;3.90;;;;;;;21.88;51.83;100768.13;20575321;28;20058;-77
2022/09/22 04:50:17;;;;;;;15.50;3.75;;;;;;;21.88;51.00;100769.94;20546292;28;20046;-76
2022/09/22 05:00:19;;;;;;;19.98;3.85;;;;;;;21.81;49.18;100756.34;20580489;28;20077;-78
2022/09/22 05:10:26;;;;;;;10.77;3.35;;;;;;;21.71;48.16;100769.38;20525751;28;20047;-80
2022/09/22 05:20:26;;;;;;;13.77;3.58;;;;;;;21.66;47.41;100758.34;20597034;28;20054;-77
2022/09/22 05:30:27;;;;;;;14.10;3.55;;;;;;;21.72;48.29;100760.53;20525130;28;20057;-77
2022/09/22 05:40:30;;;;;;;11.18;2.95;;;;;;;;;;20537610;28;20046;-78
2022/09/22 05:50:30;;;;;;;13.60;2.97;;;;;;;21.77;49.45;100769.91;20537408;28;20046;-77
2022/09/22 06:00:31;;;;;;;9.13;3.13;;;;;;;21.71;48.63;100766.75;20521940;28;22162;-77
2022/09/22 06:10:34;;;;;;;12.73;3.25;;;;;;;21.72;49.20;100771.06;20559138;28;20056;-80
2022/09/22 06:20:34;;;;;;;17.92;3.35;;;;;;;21.74;49.74;100778.88;20581134;28;20046;-78
2022/09/22 06:30:39;;;;;;;8.07;2.67;;;;;;;21.68;47.31;100784.56;20516234;28;20129;-75
2022/09/22 06:40:43;;;;;;;10.07;3.00;;;;;;;21.61;44.77;100780.72;20536770;28;20736;-76
2022/09/22 06:50:50;;;;;;;8.85;3.25;;;;;;;21.55;43.96;100785.44;20520129;28;20046;-77
2022/09/22 07:00:52;;;;;;;8.80;3.03;;;;;;;21.54;43.51;100785.56;20582831;28;20053;-76
2022/09/22 07:11:06;;;;;;;5.70;3.30;;;;;;;21.62;45.44;100775.34;20507649;28;20050;-75
2022/09/22 07:21:12;;;;;;;7.30;3.05;;;;;;;21.57;47.31;100778.31;20567271;28;20064;-76
2022/09/22 07:31:14;;;;;;;9.02;2.92;;;;;;;21.46;45.33;100790.53;20546914;28;20061;-76
2022/09/22 07:41:21;;;;;;;4.78;2.60;;;;;;;21.57;46.81;100791.47;20565216;28;20077;-76
2022/09/22 07:51:23;;;;;;;8.27;2.50;;;;;;;21.66;47.77;100783.88;20542308;28;20042;-75
2022/09/22 08:01:25;;;;;;;6.03;2.40;;;;;;;21.69;47.95;100789.75;20522555;28;20050;-75
2022/09/22 08:11:27;;;;;;;3.90;2.33;;;;;;;21.71;48.07;100793.09;20580047;28;20047;-77
2022/09/22 08:21:31;;;;;;;5.90;2.50;;;;;;;;;;20585919;28;20069;-76
2022/09/22 08:31:34;;;;;;;3.17;2.13;;;;;;;21.78;48.44;100795.31;20586907;28;20550;-77
2022/09/22 08:41:38;;;;;;;5.30;2.50;;;;;;;21.79;48.19;100792.56;20587815;28;20407;-76
2022/09/22 08:51:52;;;;;;;4.90;2.08;;;;;;;21.85;48.39;100799.16;20551521;28;20129;-76
2022/09/22 09:02:31;;;;;;;3.00;2.20;;;;;;;21.86;48.55;100785.88;20567366;28;20034;-77
2022/09/22 09:12:46;;;;;;;4.40;2.00;;;;;;;21.82;46.95;100787.03;20564368;28;20071;-77
2022/09/22 09:22:58;;;;;;;19.08;3.53;;;;;;;21.83;44.34;100791.38;20616344;28;20054;-79
2022/09/22 09:33:10;;;;;;;2.87;1.77;;;;;;;21.90;46.33;100787.31;20650865;28;20056;-77
2022/09/22 09:43:10;;;;;;;3.60;2.03;;;;;;;22.01;46.48;100783.06;20602839;28;20289;-77
2022/09/22 09:53:36;;;;;;;4.88;2.10;;;;;;;22.07;46.92;100790.50;20585334;28;20066;-77
2022/09/22 10:03:45;;;;;;;3.03;1.92;;;;;;;22.10;47.68;100789.44;20551927;28;20092;-76
2022/09/22 10:13:54;;;;;;;5.05;1.80;;;;;;;22.12;47.65;100782.22;20520751;28;20050;-76
2022/09/22 10:23:57;;;;;;;3.05;1.95;;;;;;;22.13;47.65;100781.28;20519724;28;20043;-72
2022/09/22 10:33:59;;;;;;;3.95;1.60;;;;;;;22.26;48.00;100781.22;20515470;28;20166;-72
2022/09/22 10:44:06;;;;;;;2.80;1.93;;;;;;;22.41;48.04;100771.31;20514962;28;20107;-76
2022/09/22 10:54:17;;;;;;;3.45;2.55;;;;;;;22.53;49.76;100765.06;20530242;28;20576;-74
2022/09/22 11:04:37;;;;;;;4.00;2.80;;;;;;;22.62;49.88;100751.19;20585790;28;20042;-76
2022/09/22 11:15:06;;;;;;;2.85;2.38;;;;;;;22.73;49.52;100747.72;20599844;28;21767;-76
2022/09/22 11:25:13;;;;;;;4.40;2.60;;;;;;;22.64;48.11;100736.06;20557467;28;20525;-76
2022/09/22 11:35:16;;;;;;;2.53;2.22;;;;;;;22.60;46.68;100731.16;20574073;28;20058;-77
2022/09/22 11:45:51;;;;;;;3.20;2.10;;;;;;;22.63;45.93;100717.69;20548658;28;20065;-76
2022/09/22 11:55:53;;;;;;;2.67;1.88;;;;;;;22.60;44.97;100715.31;20541181;28;20052;-76
2022/09/22 12:05:57;;;;;;;2.60;1.73;;;;;;;22.52;42.83;100708.84;20552285;28;20048;-78
2022/09/22 12:16:07;;;;;;;6.05;2.33;;;;;;;22.55;45.24;100698.03;20601531;28;20437;-76
2022/09/22 12:26:10;;;;;;;3.28;1.80;;;;;;;22.55;45.93;100697.19;20536833;28;20134;-76
2022/09/22 12:36:11;;;;;;;6.63;2.60;;;;;;;22.58;46.82;100690.84;20572511;28;20042;-75
2022/09/22 12:46:24;;;;;;;7.07;3.30;;;;;;;22.60;46.87;100691.56;20631002;28;20046;-76
2022/09/22 12:56:45;;;;;;;6.00;3.42;;;;;;;22.52;47.17;100689.50;20582325;28;20066;-76
2022/09/22 13:06:45;;;;;;;5.72;3.20;;;;;;;22.60;48.11;100687.09;20576401;28;20140;-74
2022/09/22 13:16:46;;;;;;;4.65;2.97;;;;;;;22.75;47.92;100686.88;20584177;28;20077;-76
2022/09/22 13:26:46;;;;;;;6.43;3.20;;;;;;;22.89;47.61;100669.91;20574166;28;20126;-78
2022/09/22 13:36:48;;;;;;;7.28;3.75;;;;;;;23.02;47.75;100654.75;20563538;28;20050;-78
2022/09/22 13:46:49;;;;;;;19.57;6.20;;;;;;;23.14;47.86;100645.00;20541775;28;20039;-74
2022/09/22 13:56:50;;;;;;;17.92;5.53;;;;;;;23.16;47.67;100632.50;20576267;28;20042;-74
2022/09/22 14:06:58;;;;;;;22.10;5.65;;;;;;;23.21;47.64;100626.88;20600698;28;20039;-74
2022/09/22 14:17:02;;;;;;;14.00;5.47;;;;;;;23.28;47.48;100626.25;20535448;28;20054;-74
2022/09/22 14:27:06;;;;;;;18.88;5.22;;;;;;;23.34;47.51;100612.53;20536561;28;20077;-74
2022/09/22 14:37:20;;;;;;;17.75;4.78;;;;;;;23.41;47.62;100607.56;20558613;28;20085;-74
2022/09/22 14:47:28;;;;;;;15.07;4.60;;;;;;;23.48;47.87;100602.59;20527252;28;20599;-75
2022/09/22 14:57:29;;;;;;;9.93;4.40;;;;;;;23.39;47.70;100601.56;20539802;28;20053;-74
2022/09/22 15:07:37;;;;;;;12.80;4.70;;;;;;;23.31;47.75;100619.88;20539560;28;20070;-72
2022/09/22 15:27:59;;;;;;;11.90;3.93;;;;;;;23.20;48.09;100614.63;20512386;28;20051;-76
2022/09/22 15:38:00;;;;;;;10.45;3.85;;;;;;;23.20;48.38;100626.03;20527342;28;20621;-75
2022/09/22 15:48:00;;;;;;;16.10;3.63;;;;;;;23.03;48.41;100628.22;20533279;28;20477;-75
2022/09/22 15:58:07;;;;;;;12.52;3.60;;;;;;;22.99;48.91;100621.50;20531490;28;20969;-79
2022/09/22 16:08:15;;;;;;;7.30;3.20;;;;;;;22.96;48.74;100623.56;20533432;28;20039;-77
2022/09/22 16:18:16;;;;;;;8.43;3.15;;;;;;;22.95;48.70;100640.38;20542741;28;20449;-77
2022/09/22 16:28:16;;;;;;;8.80;4.18;;;;;;;23.03;50.25;100645.88;20555334;28;20042;-76
2022/09/22 16:38:17;;;;;;;16.55;5.57;;;;;;;23.15;54.56;100650.13;20536181;28;20062;-76
2022/09/22 16:48:17;;;;;;;15.70;5.25;;;;;;;23.16;56.70;100651.00;20518176;28;20035;-76
2022/09/22 16:58:18;;;;;;;13.00;4.53;;;;;;;23.08;55.90;100643.69;20559918;28;20066;-77
2022/09/22 17:08:20;;;;;;;9.48;3.80;;;;;;;23.07;55.32;100662.31;20644496;28;20069;-78
2022/09/22 17:18:22;;;;;;;7.32;3.60;;;;;;;22.99;54.64;100668.22;20598562;28;20060;-79
2022/09/22 17:28:23;;;;;;;7.33;3.40;;;;;;;22.94;54.72;100670.41;20640491;28;20100;-79
2022/09/22 17:38:25;;;;;;;7.13;3.10;;;;;;;22.83;54.58;100680.00;20603562;28;20065;-77
2022/09/22 17:58:47;;;;;;;12.32;2.90;;;;;;;22.77;54.17;100700.78;20523459;28;19941;-78
2022/09/22 18:08:47;;;;;;;10.23;3.72;;;;;;;22.69;54.18;100704.00;20565460;28;20046;-73
2022/09/22 18:18:48;;;;;;;8.38;2.85;;;;;;;22.64;53.65;100711.47;20559758;28;20046;-74
2022/09/22 18:28:51;;;;;;;11.50;3.22;;;;;;;22.57;53.46;100724.31;20553842;28;20520;-72
2022/09/22 18:38:52;;;;;;;9.30;3.30;;;;;;;22.54;53.11;100735.09;20570630;28;20045;-72
2022/09/22 18:49:01;;;;;;;6.35;3.35;;;;;;;22.48;52.79;100739.03;20578046;28;20473;-72
2022/09/22 18:59:03;;;;;;;7.13;3.08;;;;;;;22.44;53.17;100740.25;20660723;28;20125;-73
2022/09/22 19:09:04;;;;;;;5.03;3.25;;;;;;;22.36;53.08;100730.25;20635004;28;20053;-73
2022/09/22 19:19:04;;;;;;;5.30;3.08;;;;;;;22.31;53.00;100723.66;20576484;28;20050;-73
2022/09/22 19:29:05;;;;;;;7.32;3.20;;;;;;;22.28;53.30;100729.19;20591796;28;20093;-73
2022/09/22 19:39:07;;;;;;;5.93;3.05;;;;;;;22.23;52.54;100727.72;20575248;28;20059;-73
2022/09/22 19:49:08;;;;;;;4.93;2.95;;;;;;;22.21;53.01;100731.44;20584145;28;20486;-73
2022/09/22 19:59:08;;;;;;;6.22;2.70;;;;;;;22.15;52.79;100727.44;20572633;28;20465;-76
2022/09/22 20:09:09;;;;;;;5.53;3.00;;;;;;;22.11;52.65;100733.09;20572432;28;20039;-76
2022/09/22 20:19:09;;;;;;;4.10;2.67;;;;;;;22.09;52.96;100749.03;20624866;28;20046;-76
2022/09/22 20:29:12;;;;;;;5.30;2.45;;;;;;;22.06;52.94;100744.00;20583864;28;20042;-76
2022/09/22 20:39:14;;;;;;;4.53;2.50;;;;;;;22.05;53.29;100750.22;20586120;28;20053;-77
2022/09/22 20:49:14;;;;;;;6.17;2.60;;;;;;;22.02;52.30;100766.25;20627285;28;20509;-76
2022/09/22 20:59:14;;;;;;;5.43;2.60;;;;;;;22.00;52.49;100758.47;20570408;28;20073;-76
2022/09/22 21:19:35;;;;;;;4.72;2.67;;;;;;;21.97;52.31;100761.34;20561532;28;20156;-76
2022/09/22 21:29:41;;;;;;;10.90;3.00;;;;;;;21.95;52.31;100767.66;20587971;28;20035;-76
2022/09/22 21:39:42;;;;;;;5.60;3.17;;;;;;;21.90;52.28;100758.31;20559353;28;20061;-76
2022/09/22 21:49:42;;;;;;;4.20;2.83;;;;;;;21.87;52.43;100760.34;20591847;28;20510;-76
2022/09/22 21:59:42;;;;;;;3.35;2.78;;;;;;;21.86;52.41;100766.56;20536666;28;20069;-76
2022/09/22 22:09:43;;;;;;;4.53;2.75;;;;;;;21.84;52.52;100764.06;20572492;28;20038;-77
2022/09/22 22:19:43;;;;;;;3.63;2.85;;;;;;;21.83;52.20;100770.28;20613701;28;20047;-76
2022/09/22 22:29:45;;;;;;;6.20;2.85;;;;;;;21.80;52.23;100759.13;20553458;28;20066;-76
2022/09/22 22:39:45;;;;;;;3.20;2.80;;;;;;;21.80;52.08;100756.47;20546769;28;20132;-76
2022/09/22 22:49:46;;;;;;;3.60;2.70;;;;;;;21.77;52.37;100751.44;20540964;28;20406;-76
2022/09/22 22:59:47;;;;;;;3.70;2.80;;;;;;;21.77;52.26;100752.28;20530218;28;20101;-73
2022/09/22 23:10:04;;;;;;;3.95;2.72;;;;;;;21.73;52.36;100748.19;20593309;28;20038;-74
2022/09/22 23:20:06;;;;;;;3.22;2.60;;;;;;;21.72;51.91;100746.50;20552688;28;20097;-73
2022/09/22 23:30:07;;;;;;;3.77;2.77;;;;;;;21.70;52.03;100737.88;20532385;28;21730;-73
2022/09/22 23:40:08;;;;;;;4.47;2.97;;;;;;;21.68;51.95;100730.09;20550933;28;20476;-73
2022/09/22 23:50:09;;;;;;;3.67;2.70;;;;;;;21.67;52.05;100727.56;20542821;28;20066;-74
